Time;durP1;ratioP1;P1;durP2;ratioP2;P2;SDS_P1;SDS_P2;PMS_P1;PMS_P2;Temp;Humidity;BMP_temperature;BMP_pressure;BME280_temperature;BME280_humidity;BME280_pressure;Samples;Min_cycle;Max_cycle;Signal;HPM_P1;HPM_P2
2023/07/02 00:00:13;;;;;;;5.47;3.30;;;;;23.60;100529.00;;;;5000160;28;20259;-78
2023/07/02 00:02:40;;;;;;;6.53;2.60;;;;;23.60;100516.00;;;;5005750;28;21645;-77
2023/07/02 00:05:08;;;;;;;5.15;2.33;;;;;23.50;100508.00;;;;5002715;28;20201;-78
2023/07/02 00:07:36;;;;;;;6.65;3.03;;;;;23.40;100520.00;;;;5003342;28;20233;-78
2023/07/02 00:10:05;;;;;;;6.18;3.10;;;;;23.40;100522.00;;;;5003586;28;20312;-78
2023/07/02 00:12:32;;;;;;;6.07;2.63;;;;;23.30;100532.00;;;;5009133;28;20205;-77
2023/07/02 00:14:59;;;;;;;7.20;3.22;;;;;23.30;100533.00;;;;5005734;28;20666;-78
2023/07/02 00:17:27;;;;;;;5.57;3.03;;;;;23.20;100536.00;;;;5004913;28;20224;-78
2023/07/02 00:19:54;;;;;;;6.70;3.22;;;;;23.10;100536.00;;;;5007353;28;20209;-77
2023/07/02 00:22:22;;;;;;;6.90;3.45;;;;;23.10;100536.00;;;;5008948;28;20216;-77
2023/07/02 00:24:50;;;;;;;8.98;3.70;;;;;23.00;100547.00;;;;5008165;28;20225;-77
2023/07/02 00:27:19;;;;;;;7.82;3.22;;;;;22.90;100545.00;;;;5007178;28;20263;-77
2023/07/02 00:29:46;;;;;;;7.97;3.60;;;;;22.80;100550.00;;;;5005708;28;20949;-77
2023/07/02 00:32:14;;;;;;;6.93;4.00;;;;;22.80;100553.00;;;;5007483;28;20590;-77
2023/07/02 00:34:41;;;;;;;7.10;3.67;;;;;22.70;100541.00;;;;5004209;28;20197;-78
2023/07/02 00:37:11;;;;;;;11.13;4.07;;;;;22.60;100542.00;;;;5007837;28;20225;-77
2023/07/02 00:39:39;;;;;;;11.85;5.35;;;;;22.60;100539.00;;;;5001515;28;20193;-77
2023/07/02 00:42:08;;;;;;;9.50;3.85;;;;;22.50;100541.00;;;;5002462;28;20194;-77
2023/07/02 00:44:40;;;;;;;10.23;4.07;;;;;22.50;100542.00;;;;5007001;28;20678;-77
2023/07/02 00:47:07;;;;;;;10.70;4.35;;;;;22.50;100543.00;;;;5005178;28;20204;-77
2023/07/02 00:49:35;;;;;;;5.35;3.28;;;;;22.40;100541.00;;;;5002124;28;20208;-77
2023/07/02 00:52:02;;;;;;;11.23;4.38;;;;;22.40;100533.00;;;;5005005;28;20205;-77
2023/07/02 00:54:30;;;;;;;7.90;3.63;;;;;22.30;100544.00;;;;5008597;28;20212;-78
2023/07/02 00:57:02;;;;;;;7.57;3.63;;;;;22.30;100539.00;;;;5008196;28;20217;-77
2023/07/02 00:59:30;;;;;;;6.88;3.88;;;;;22.30;100546.00;;;;5006501;28;20292;-77
2023/07/02 01:01:59;;;;;;;6.85;3.92;;;;;22.20;100548.00;;;;5007293;28;20212;-78
2023/07/02 01:04:27;;;;;;;6.53;3.78;;;;;22.20;100549.00;;;;5007547;28;20189;-77
2023/07/02 01:06:57;;;;;;;5.78;3.53;;;;;22.20;100548.00;;;;5004865;28;20284;-77
2023/07/02 01:09:26;;;;;;;7.80;4.05;;;;;22.10;100546.00;;;;5005027;28;20289;-78
2023/07/02 01:11:56;;;;;;;5.47;3.85;;;;;22.10;100547.00;;;;5008998;28;20205;-77
2023/07/02 01:14:27;;;;;;;5.25;3.38;;;;;22.00;100545.00;;;;5007650;28;20216;-78
2023/07/02 01:16:58;;;;;;;4.35;2.92;;;;;22.00;100550.00;;;;5008355;28;20221;-78
2023/07/02 01:19:41;;;;;;;7.38;4.00;;;;;21.90;100555.00;;;;5006851;28;21159;-77
2023/07/02 01:22:10;;;;;;;8.52;3.58;;;;;22.00;100557.00;;;;5003101;28;20243;-77
2023/07/02 01:24:37;;;;;;;5.00;3.35;;;;;21.90;100564.00;;;;5004272;28;20213;-78
2023/07/02 01:27:05;;;;;;;5.82;3.90;;;;;21.90;100557.00;;;;5007623;28;20204;-77
2023/07/02 01:29:36;;;;;;;7.38;4.07;;;;;21.90;100561.00;;;;5007332;28;20558;-77
2023/07/02 01:32:04;;;;;;;6.70;3.35;;;;;21.80;100558.00;;;;5006879;28;20275;-77
2023/07/02 01:34:33;;;;;;;4.55;3.05;;;;;21.80;100559.00;;;;5005625;28;20201;-77
2023/07/02 01:37:00;;;;;;;6.63;3.55;;;;;21.80;100559.00;;;;5009751;28;20232;-77
2023/07/02 01:39:28;;;;;;;5.70;3.75;;;;;21.80;100557.00;;;;5009646;28;20189;-77
2023/07/02 01:41:56;;;;;;;5.82;3.17;;;;;21.70;100555.00;;;;5007198;28;20561;-77
2023/07/02 01:44:23;;;;;;;5.97;2.90;;;;;21.70;100557.00;;;;5007128;28;20196;-77
2023/07/02 01:46:51;;;;;;;5.13;3.20;;;;;21.70;100559.00;;;;5006203;28;20209;-77
2023/07/02 01:49:20;;;;;;;5.68;3.40;;;;;21.60;100562.00;;;;5007215;28;20201;-77
2023/07/02 01:51:50;;;;;;;7.85;3.80;;;;;21.60;100567.00;;;;5008697;28;20540;-77
2023/07/02 01:54:18;;;;;;;6.30;3.50;;;;;21.60;100561.00;;;;5004973;28;20209;-77
2023/07/02 01:56:45;;;;;;;7.18;3.30;;;;;21.50;100562.00;;;;5002358;28;20223;-77
2023/07/02 01:59:13;;;;;;;4.28;3.28;;;;;21.50;100570.00;;;;5005199;28;20204;-77
2023/07/02 02:01:40;;;;;;;8.40;3.97;;;;;21.50;100560.00;;;;5001277;28;20215;-77
2023/07/02 02:04:08;;;;;;;5.00;3.70;;;;;21.40;100563.00;;;;5005826;28;20221;-77
2023/07/02 02:06:36;;;;;;;4.38;2.88;;;;;21.40;100567.00;;;;5007680;28;20197;-78
2023/07/02 02:09:06;;;;;;;6.20;3.35;;;;;21.40;100570.00;;;;5007517;28;20232;-77
2023/07/02 02:11:34;;;;;;;5.97;3.03;;;;;21.40;100570.00;;;;5007649;28;20209;-77
2023/07/02 02:14:02;;;;;;;5.35;3.22;;;;;21.40;100567.00;;;;5002293;28;20205;-77
2023/07/02 02:16:29;;;;;;;6.13;3.67;;;;;21.30;100567.00;;;;5004120;28;20359;-77
2023/07/02 02:18:57;;;;;;;5.47;3.13;;;;;21.30;100569.00;;;;5000992;28;20201;-78
2023/07/02 02:21:24;;;;;;;8.52;4.43;;;;;21.30;100564.00;;;;5006587;28;20193;-77
2023/07/02 02:23:52;;;;;;;7.15;4.22;;;;;21.30;100565.00;;;;5001297;28;20204;-77
2023/07/02 02:26:22;;;;;;;8.15;3.70;;;;;21.30;100568.00;;;;5005441;28;20208;-77
2023/07/02 02:28:49;;;;;;;4.28;2.72;;;;;21.30;100574.00;;;;5005247;28;20371;-77
2023/07/02 02:31:16;;;;;;;6.75;3.45;;;;;21.20;100575.00;;;;4998352;28;20204;-77
2023/07/02 02:33:44;;;;;;;8.60;3.40;;;;;21.20;100579.00;;;;5006423;28;20208;-77
2023/07/02 02:36:11;;;;;;;6.13;3.70;;;;;21.20;100578.00;;;;5004641;28;20193;-77
2023/07/02 02:38:39;;;;;;;5.57;3.63;;;;;21.20;100590.00;;;;5005932;28;20202;-77
2023/07/02 02:41:08;;;;;;;8.40;3.80;;;;;21.20;100591.00;;;;5004016;28;20251;-77
2023/07/02 02:43:36;;;;;;;8.00;3.40;;;;;21.10;100590.00;;;;5006776;28;20288;-77
2023/07/02 02:46:04;;;;;;;7.88;4.22;;;;;21.10;100583.00;;;;5004030;28;20211;-77
2023/07/02 02:48:31;;;;;;;5.78;3.25;;;;;21.10;100587.00;;;;5004044;28;20685;-77
2023/07/02 02:50:59;;;;;;;7.13;3.70;;;;;21.10;100579.00;;;;5005302;28;20206;-77
2023/07/02 02:53:26;;;;;;;5.78;4.30;;;;;21.10;100586.00;;;;5004761;28;20201;-77
2023/07/02 02:55:54;;;;;;;6.95;3.83;;;;;21.00;100591.00;;;;5001484;28;20201;-77
2023/07/02 02:58:22;;;;;;;8.32;4.20;;;;;21.00;100590.00;;;;5006102;28;20232;-77
2023/07/02 03:00:51;;;;;;;5.53;3.92;;;;;21.00;100594.00;;;;4993292;28;20208;-77
2023/07/02 03:03:20;;;;;;;5.90;3.88;;;;;21.00;100594.00;;;;5007264;28;20226;-77
2023/07/02 03:05:48;;;;;;;6.53;3.63;;;;;21.00;100597.00;;;;5000679;28;20201;-77
2023/07/02 03:08:15;;;;;;;7.93;3.47;;;;;21.00;100605.00;;;;5004369;28;20223;-77
2023/07/02 03:10:43;;;;;;;7.70;4.38;;;;;21.00;100601.00;;;;5005995;28;20213;-77
2023/07/02 03:13:10;;;;;;;6.15;3.35;;;;;21.00;100601.00;;;;5005620;28;20606;-77
2023/07/02 03:15:37;;;;;;;7.22;3.58;;;;;20.90;100612.00;;;;5004168;28;20201;-77
2023/07/02 03:18:06;;;;;;;5.22;3.78;;;;;20.90;100611.00;;;;5003923;28;20240;-77
2023/07/02 03:20:33;;;;;;;6.47;3.65;;;;;20.90;100605.00;;;;5003607;28;20208;-78
2023/07/02 03:23:01;;;;;;;5.80;3.45;;;;;20.90;100608.00;;;;5000717;28;20562;-77
2023/07/02 03:25:28;;;;;;;8.50;3.88;;;;;20.90;100610.00;;;;5002847;28;20194;-77
2023/07/02 03:27:55;;;;;;;9.38;4.43;;;;;20.80;100610.00;;;;5006178;28;21088;-77
2023/07/02 03:30:22;;;;;;;8.68;4.22;;;;;20.80;100612.00;;;;5004840;28;20240;-77
2023/07/02 03:32:51;;;;;;;7.93;3.78;;;;;20.80;100609.00;;;;5005780;28;20200;-77
2023/07/02 03:35:19;;;;;;;8.30;4.07;;;;;20.80;100615.00;;;;5003662;28;20212;-77
2023/07/02 03:37:47;;;;;;;7.95;4.22;;;;;20.80;100612.00;;;;4998488;28;20228;-77
2023/07/02 03:40:14;;;;;;;10.90;4.38;;;;;20.70;100620.00;;;;4995508;28;20219;-77
2023/07/02 03:42:42;;;;;;;5.53;3.17;;;;;20.70;100624.00;;;;5007246;28;20216;-77
2023/07/02 03:45:10;;;;;;;9.77;4.45;;;;;20.70;100621.00;;;;5005453;28;21067;-77
2023/07/02 03:47:38;;;;;;;9.10;3.90;;;;;20.70;100615.00;;;;5008134;28;20211;-77
2023/07/02 03:50:06;;;;;;;8.18;4.30;;;;;20.60;100610.00;;;;5006592;28;20204;-77
2023/07/02 03:52:34;;;;;;;15.90;4.85;;;;;20.60;100620.00;;;;5007167;28;20216;-77
2023/07/02 03:55:02;;;;;;;10.45;4.30;;;;;20.60;100610.00;;;;5006100;28;20204;-78
2023/07/02 03:57:30;;;;;;;5.90;4.25;;;;;20.60;100616.00;;;;5010017;28;20231;-77
2023/07/02 03:59:57;;;;;;;9.63;4.05;;;;;20.60;100625.00;;;;5008712;28;20202;-77
2023/07/02 04:02:24;;;;;;;11.20;4.32;;;;;20.50;100624.00;;;;5006367;28;20208;-78
2023/07/02 04:04:52;;;;;;;8.00;3.78;;;;;20.50;100628.00;;;;5008380;28;20200;-77
2023/07/02 04:07:19;;;;;;;6.07;3.47;;;;;20.50;100633.00;;;;5007367;28;20300;-77
2023/07/02 04:09:47;;;;;;;6.43;3.72;;;;;20.50;100631.00;;;;5010245;28;20691;-77
2023/07/02 04:12:15;;;;;;;6.90;4.05;;;;;20.50;100634.00;;;;5008224;28;20540;-77
2023/07/02 04:14:42;;;;;;;6.90;4.45;;;;;20.50;100643.00;;;;5006350;28;20288;-77
2023/07/02 04:17:09;;;;;;;9.40;4.40;;;;;20.40;100637.00;;;;5001853;28;20216;-78
2023/07/02 04:19:37;;;;;;;9.88;4.30;;;;;20.40;100649.00;;;;5004103;28;20212;-77
2023/07/02 04:22:04;;;;;;;8.13;4.75;;;;;20.40;100658.00;;;;5007916;28;20197;-78
2023/07/02 04:24:32;;;;;;;6.63;3.80;;;;;20.40;100650.00;;;;5010158;28;20204;-78
2023/07/02 04:27:00;;;;;;;8.25;4.00;;;;;20.40;100651.00;;;;5010173;28;20205;-77
2023/07/02 04:29:27;;;;;;;8.10;4.50;;;;;20.40;100651.00;;;;5007986;28;20671;-77
2023/07/02 04:31:55;;;;;;;9.55;3.78;;;;;20.40;100651.00;;;;5005856;28;20193;-77
2023/07/02 04:34:22;;;;;;;11.15;4.75;;;;;20.40;100651.00;;;;5009341;28;20200;-77
2023/07/02 04:36:50;;;;;;;8.18;4.70;;;;;20.40;100649.00;;;;5008186;28;20229;-77
2023/07/02 04:39:17;;;;;;;7.97;4.85;;;;;20.40;100651.00;;;;5001421;28;20201;-77
2023/07/02 04:41:44;;;;;;;8.50;4.03;;;;;20.40;100655.00;;;;5007377;28;20193;-77
2023/07/02 04:44:13;;;;;;;6.95;4.20;;;;;20.40;100655.00;;;;5008154;28;20213;-77
2023/07/02 04:46:40;;;;;;;8.25;4.35;;;;;20.40;100655.00;;;;5007663;28;20581;-77
2023/07/02 04:49:08;;;;;;;7.32;4.20;;;;;20.40;100661.00;;;;5005569;28;20213;-77
2023/07/02 04:51:35;;;;;;;10.43;4.75;;;;;20.50;100669.00;;;;5008034;28;20196;-77
2023/07/02 04:54:02;;;;;;;7.20;4.22;;;;;20.50;100661.00;;;;5007426;28;20208;-77
2023/07/02 04:56:29;;;;;;;8.75;3.78;;;;;20.50;100665.00;;;;5007093;28;20200;-77
2023/07/02 04:58:57;;;;;;;6.82;4.07;;;;;20.50;100665.00;;;;5008378;28;20221;-77
2023/07/02 05:01:28;;;;;;;14.20;4.53;;;;;20.60;100668.00;;;;5001886;28;20204;-77
2023/07/02 05:03:55;;;;;;;10.15;3.67;;;;;20.60;100661.00;;;;5004440;28;20198;-78
2023/07/02 05:06:22;;;;;;;7.97;4.57;;;;;20.60;100674.00;;;;5009458;28;20205;-77
2023/07/02 05:08:49;;;;;;;14.10;4.95;;;;;20.70;100672.00;;;;5007019;28;20232;-77
2023/07/02 05:11:17;;;;;;;9.75;4.43;;;;;20.70;100671.00;;;;5008968;28;20201;-76
2023/07/02 05:13:44;;;;;;;11.10;4.60;;;;;20.70;100675.00;;;;5004895;28;20205;-77
2023/07/02 05:16:11;;;;;;;7.43;4.07;;;;;20.70;100671.00;;;;5005692;28;20197;-77
2023/07/02 05:18:40;;;;;;;12.13;5.40;;;;;20.70;100683.00;;;;5000459;28;20693;-78
2023/07/02 05:21:07;;;;;;;10.20;4.90;;;;;20.80;100679.00;;;;5004081;28;20204;-77
2023/07/02 05:23:34;;;;;;;12.57;4.75;;;;;20.80;100687.00;;;;5006278;28;20212;-77
2023/07/02 05:26:02;;;;;;;10.27;4.57;;;;;20.80;100683.00;;;;5005617;28;20211;-77
2023/07/02 05:28:29;;;;;;;10.07;4.45;;;;;20.80;100680.00;;;;5001660;28;20208;-77
2023/07/02 05:30:56;;;;;;;10.10;4.95;;;;;20.90;100683.00;;;;5003328;28;20201;-78
2023/07/02 05:33:24;;;;;;;16.33;5.88;;;;;20.90;100688.00;;;;5005746;28;20210;-77
2023/07/02 05:35:52;;;;;;;12.32;4.38;;;;;21.00;100686.00;;;;5005689;28;20202;-77
2023/07/02 05:38:20;;;;;;;10.43;4.75;;;;;21.00;100690.00;;;;5005432;28;20726;-78
2023/07/02 05:40:48;;;;;;;11.98;5.13;;;;;21.10;100693.00;;;;5006815;28;20659;-78
2023/07/02 05:43:16;;;;;;;12.07;4.82;;;;;21.20;100703.00;;;;5006107;28;20193;-77
2023/07/02 05:45:43;;;;;;;10.82;4.65;;;;;21.20;100697.00;;;;5008438;28;20200;-78
2023/07/02 05:48:10;;;;;;;18.33;5.53;;;;;21.30;100698.00;;;;5003711;28;20571;-77
2023/07/02 05:50:38;;;;;;;10.70;4.53;;;;;21.40;100693.00;;;;5005406;28;20197;-78
2023/07/02 05:53:06;;;;;;;9.07;4.40;;;;;21.40;100713.00;;;;5005425;28;20201;-78
2023/07/02 05:55:34;;;;;;;12.25;4.75;;;;;21.50;100702.00;;;;5007665;28;20204;-77
2023/07/02 05:58:02;;;;;;;10.10;4.53;;;;;21.50;100707.00;;;;5004747;28;20220;-78
2023/07/02 06:00:30;;;;;;;12.73;3.58;;;;;21.60;100710.00;;;;4998256;28;21087;-78
2023/07/02 06:02:57;;;;;;;9.77;4.60;;;;;21.70;100713.00;;;;5000517;28;20201;-77
2023/07/02 06:05:24;;;;;;;11.52;4.38;;;;;21.70;100712.00;;;;5005336;28;20201;-78
2023/07/02 06:07:52;;;;;;;11.32;4.18;;;;;21.80;100710.00;;;;5006337;28;20226;-78
2023/07/02 06:10:20;;;;;;;9.23;3.63;;;;;21.80;100723.00;;;;5006834;28;20217;-78
2023/07/02 06:12:48;;;;;;;11.55;4.13;;;;;21.90;100720.00;;;;5005268;28;20197;-78
2023/07/02 06:15:15;;;;;;;10.57;4.38;;;;;21.90;100720.00;;;;5000700;28;20215;-79
2023/07/02 06:17:42;;;;;;;11.93;4.38;;;;;22.00;100721.00;;;;5001512;28;20217;-78
2023/07/02 06:20:10;;;;;;;7.38;3.55;;;;;22.00;100720.00;;;;5001175;28;20216;-78
2023/07/02 06:22:38;;;;;;;9.43;4.38;;;;;22.10;100724.00;;;;5002057;28;20203;-77
2023/07/02 06:25:06;;;;;;;11.18;4.20;;;;;22.10;100731.00;;;;4999737;28;20288;-78
2023/07/02 06:27:34;;;;;;;7.95;4.15;;;;;22.20;100736.00;;;;5000168;28;20210;-78
2023/07/02 06:30:02;;;;;;;8.55;3.53;;;;;22.20;100737.00;;;;4997869;28;20211;-78
2023/07/02 06:32:29;;;;;;;6.65;3.67;;;;;22.20;100737.00;;;;5000237;28;20201;-79
2023/07/02 06:34:57;;;;;;;8.00;4.28;;;;;22.30;100751.00;;;;5001397;28;20617;-78
2023/07/02 06:37:24;;;;;;;7.57;3.55;;;;;22.30;100738.00;;;;4999626;28;20194;-79
2023/07/02 06:39:52;;;;;;;10.18;4.05;;;;;22.40;100741.00;;;;5000813;28;20197;-78
2023/07/02 06:42:19;;;;;;;9.45;4.30;;;;;22.40;100734.00;;;;5000517;28;20285;-79
2023/07/02 06:44:48;;;;;;;8.88;3.50;;;;;22.40;100746.00;;;;5000707;28;20299;-77
2023/07/02 06:47:15;;;;;;;6.50;3.30;;;;;22.50;100747.00;;;;4997503;28;20185;-76
2023/07/02 06:49:43;;;;;;;12.38;5.15;;;;;22.50;100755.00;;;;4998533;28;20201;-78
2023/07/02 06:52:10;;;;;;;7.65;3.55;;;;;22.60;100758.00;;;;4999712;28;20204;-79
2023/07/02 06:54:38;;;;;;;8.88;3.80;;;;;22.60;100759.00;;;;4997744;28;20208;-79
2023/07/02 06:57:05;;;;;;;5.97;3.63;;;;;22.60;100762.00;;;;4998025;28;20204;-78
2023/07/02 06:59:33;;;;;;;7.65;3.25;;;;;22.70;100770.00;;;;5001657;28;20233;-78
2023/07/02 07:02:02;;;;;;;6.38;3.10;;;;;22.60;100778.00;;;;4996270;28;20193;-78
2023/07/02 07:04:30;;;;;;;5.82;3.35;;;;;22.70;100774.00;;;;4999450;28;20870;-79
2023/07/02 07:06:57;;;;;;;5.97;3.20;;;;;22.70;100770.00;;;;4998462;28;20212;-78
2023/07/02 07:09:25;;;;;;;10.85;3.83;;;;;22.70;100775.00;;;;4999685;28;20228;-79
2023/07/02 07:11:52;;;;;;;8.93;3.25;;;;;22.80;100779.00;;;;4997737;28;20869;-79
2023/07/02 07:14:21;;;;;;;5.57;3.50;;;;;22.90;100785.00;;;;4996635;28;20204;-78
2023/07/02 07:16:48;;;;;;;8.65;3.20;;;;;22.90;100787.00;;;;4999181;28;20201;-78
2023/07/02 07:19:17;;;;;;;7.03;3.33;;;;;23.00;100784.00;;;;5006735;28;20221;-79
2023/07/02 07:21:45;;;;;;;6.85;3.05;;;;;23.00;100789.00;;;;5005820;28;20714;-79
2023/07/02 07:24:12;;;;;;;8.30;3.45;;;;;23.10;100791.00;;;;5003013;28;20204;-80
2023/07/02 07:26:39;;;;;;;8.07;3.22;;;;;23.10;100797.00;;;;5005530;28;20201;-78
2023/07/02 07:29:07;;;;;;;7.82;3.42;;;;;23.20;100800.00;;;;5006909;28;20212;-77
2023/07/02 07:31:35;;;;;;;8.73;3.38;;;;;23.20;100804.00;;;;5004778;28;20208;-77
2023/07/02 07:34:02;;;;;;;11.00;2.80;;;;;23.20;100812.00;;;;5004022;28;20203;-79
2023/07/02 07:36:31;;;;;;;8.57;3.97;;;;;23.20;100805.00;;;;5004555;28;20193;-79
2023/07/02 07:38:58;;;;;;;5.10;3.10;;;;;23.30;100810.00;;;;4999668;28;20247;-76
2023/07/02 07:41:25;;;;;;;6.70;3.03;;;;;23.30;100807.00;;;;5002926;28;20655;-78
2023/07/02 07:43:52;;;;;;;7.13;3.60;;;;;23.40;100815.00;;;;5006849;28;20213;-77
2023/07/02 07:46:20;;;;;;;9.73;3.28;;;;;23.40;100798.00;;;;5004850;28;20205;-77
2023/07/02 07:48:47;;;;;;;7.50;3.22;;;;;23.50;100805.00;;;;5005350;28;20241;-78
2023/07/02 07:51:14;;;;;;;7.15;3.60;;;;;23.50;100814.00;;;;5005340;28;20197;-77
2023/07/02 07:53:43;;;;;;;7.85;2.38;;;;;23.60;100819.00;;;;5005443;28;20201;-77
2023/07/02 07:56:10;;;;;;;5.60;3.10;;;;;23.60;100822.00;;;;5005731;28;20751;-77
2023/07/02 07:58:38;;;;;;;7.93;3.28;;;;;23.70;100815.00;;;;5005113;28;20636;-76
2023/07/02 08:01:05;;;;;;;6.32;3.03;;;;;23.70;100825.00;;;;5004362;28;20201;-78
2023/07/02 08:03:32;;;;;;;6.25;3.60;;;;;23.70;100816.00;;;;5001678;28;20216;-77
2023/07/02 08:05:59;;;;;;;5.93;3.08;;;;;23.70;100827.00;;;;5005384;28;20197;-78
2023/07/02 08:08:27;;;;;;;9.27;2.88;;;;;23.80;100825.00;;;;5003219;28;20228;-77
2023/07/02 08:10:55;;;;;;;4.50;2.70;;;;;23.80;100831.00;;;;4999285;28;20234;-79
2023/07/02 08:13:23;;;;;;;10.18;3.13;;;;;23.90;100832.00;;;;5004191;28;20930;-77
2023/07/02 08:15:50;;;;;;;5.20;3.00;;;;;24.00;100824.00;;;;5006018;28;20200;-76
2023/07/02 08:18:17;;;;;;;6.72;3.60;;;;;24.00;100830.00;;;;5006330;28;20228;-77
2023/07/02 08:20:45;;;;;;;6.45;3.22;;;;;24.00;100838.00;;;;5006465;28;20212;-78
2023/07/02 08:23:12;;;;;;;4.53;2.58;;;;;24.00;100844.00;;;;5006612;28;20208;-78
2023/07/02 08:25:40;;;;;;;7.28;3.33;;;;;24.00;100838.00;;;;4999518;28;20212;-79
2023/07/02 08:28:08;;;;;;;7.68;3.25;;;;;24.00;100839.00;;;;5003142;28;20197;-78
2023/07/02 08:30:36;;;;;;;5.57;3.03;;;;;24.00;100835.00;;;;5008397;28;20197;-78
2023/07/02 08:33:03;;;;;;;6.22;3.08;;;;;24.00;100837.00;;;;5008961;28;20651;-77
2023/07/02 08:35:31;;;;;;;7.28;2.97;;;;;24.00;100839.00;;;;5009379;28;20209;-76
2023/07/02 08:37:58;;;;;;;5.07;2.88;;;;;24.10;100851.00;;;;5007837;28;20212;-76
2023/07/02 08:40:25;;;;;;;5.78;2.55;;;;;24.10;100851.00;;;;5008960;28;20201;-80
2023/07/02 08:42:53;;;;;;;8.93;3.15;;;;;24.20;100858.00;;;;5006841;28;20205;-79
2023/07/02 08:45:23;;;;;;;5.88;2.63;;;;;24.30;100858.00;;;;5001381;28;20198;-79
2023/07/02 08:47:53;;;;;;;7.60;3.60;;;;;24.30;100850.00;;;;5004294;28;20190;-76
2023/07/02 08:50:20;;;;;;;6.25;2.85;;;;;24.30;100856.00;;;;5009401;28;20201;-77
2023/07/02 08:52:48;;;;;;;6.35;2.60;;;;;24.30;100857.00;;;;5008237;28;20208;-77
2023/07/02 08:55:15;;;;;;;3.50;2.10;;;;;24.40;100859.00;;;;5008798;28;20206;-76
2023/07/02 08:57:50;;;;;;;5.22;3.13;;;;;24.40;100859.00;;;;5008561;28;20205;-76
2023/07/02 09:00:18;;;;;;;5.90;2.22;;;;;24.50;100851.00;;;;5009365;28;20587;-76
2023/07/02 09:02:47;;;;;;;3.60;2.38;;;;;24.60;100857.00;;;;5004576;28;20215;-77
2023/07/02 09:05:14;;;;;;;4.88;2.45;;;;;24.70;100869.00;;;;5003157;28;20237;-79
2023/07/02 09:07:48;;;;;;;4.20;2.38;;;;;24.70;100864.00;;;;5007082;28;20248;-80
2023/07/02 09:10:28;;;;;;;4.05;2.63;;;;;24.80;100859.00;;;;5005755;28;20220;-77
2023/07/02 09:13:05;;;;;;;5.15;3.03;;;;;24.90;100867.00;;;;5006132;28;20213;-78
2023/07/02 09:15:37;;;;;;;3.60;2.10;;;;;25.00;100852.00;;;;5005315;28;20279;-81
2023/07/02 09:18:19;;;;;;;7.50;2.60;;;;;25.00;100864.00;;;;5004655;28;20247;-80
2023/07/02 09:20:46;;;;;;;5.60;2.78;;;;;25.10;100870.00;;;;4999610;28;20201;-81
2023/07/02 09:23:15;;;;;;;4.93;2.72;;;;;25.10;100871.00;;;;5005768;28;20197;-80
2023/07/02 09:25:42;;;;;;;4.80;2.20;;;;;25.10;100863.00;;;;5008995;28;20204;-80
2023/07/02 09:28:17;;;;;;;2.80;1.92;;;;;25.00;100876.00;;;;5006761;28;20757;-80
2023/07/02 09:30:52;;;;;;;4.95;2.25;;;;;25.00;100869.00;;;;5001751;28;20201;-79
2023/07/02 09:33:21;;;;;;;3.35;2.10;;;;;25.10;100873.00;;;;5007232;28;20209;-78
2023/07/02 09:35:51;;;;;;;2.95;1.83;;;;;25.10;100872.00;;;;5006724;28;20197;-78
2023/07/02 09:38:19;;;;;;;5.00;2.10;;;;;25.20;100875.00;;;;5006227;28;20219;-79
2023/07/02 09:40:49;;;;;;;4.00;2.25;;;;;25.20;100874.00;;;;5004368;28;20201;-81
2023/07/02 09:43:17;;;;;;;5.38;2.33;;;;;25.30;100873.00;;;;5008059;28;20284;-79
2023/07/02 09:45:46;;;;;;;3.05;1.67;;;;;25.30;100865.00;;;;5003651;28;20205;-80
2023/07/02 09:48:15;;;;;;;4.07;1.63;;;;;25.40;100861.00;;;;5008185;28;22079;-79
2023/07/02 09:50:48;;;;;;;2.47;1.30;;;;;25.50;100855.00;;;;5007672;28;20283;-79
2023/07/02 09:53:15;;;;;;;2.92;1.65;;;;;25.60;100859.00;;;;5005720;28;20197;-79
2023/07/02 09:55:44;;;;;;;5.88;1.98;;;;;25.70;100854.00;;;;5007012;28;20208;-80
2023/07/02 09:58:12;;;;;;;3.15;1.38;;;;;25.80;100861.00;;;;5003938;28;20202;-79
2023/07/02 10:00:40;;;;;;;2.78;1.70;;;;;25.90;100861.00;;;;5007420;28;20256;-79
2023/07/02 10:03:07;;;;;;;5.13;2.03;;;;;26.00;100869.00;;;;5005783;28;20738;-79
2023/07/02 10:05:35;;;;;;;3.25;1.98;;;;;26.00;100874.00;;;;5006249;28;20228;-79
2023/07/02 10:08:17;;;;;;;4.32;2.00;;;;;26.00;100882.00;;;;5007172;28;20320;-79
2023/07/02 10:10:45;;;;;;;4.13;1.92;;;;;26.20;100885.00;;;;4999404;28;20685;-81
2023/07/02 10:13:12;;;;;;;7.13;2.55;;;;;26.20;100887.00;;;;5004507;28;20208;-80
2023/07/02 10:15:40;;;;;;;4.82;2.33;;;;;26.30;100876.00;;;;5005473;28;20776;-78
2023/07/02 10:18:07;;;;;;;4.45;1.98;;;;;26.30;100884.00;;;;5007656;28;20197;-79
2023/07/02 10:20:36;;;;;;;4.15;2.20;;;;;26.30;100878.00;;;;5006916;28;20228;-78
2023/07/02 10:23:04;;;;;;;3.45;1.92;;;;;26.30;100891.00;;;;5007802;28;20205;-81
2023/07/02 10:25:36;;;;;;;3.53;1.52;;;;;26.40;100884.00;;;;5007159;28;20204;-80
2023/07/02 10:28:15;;;;;;;3.20;1.52;;;;;26.40;100886.00;;;;4999666;28;20189;-79
2023/07/02 10:30:43;;;;;;;3.30;1.92;;;;;26.50;100886.00;;;;5007533;28;20246;-81
2023/07/02 10:33:12;;;;;;;2.15;1.48;;;;;26.60;100895.00;;;;5006097;28;20201;-80
2023/07/02 10:35:41;;;;;;;5.07;2.55;;;;;26.60;100901.00;;;;5002422;28;20204;-79
2023/07/02 10:38:14;;;;;;;3.17;1.92;;;;;26.60;100889.00;;;;5003826;28;20206;-79
2023/07/02 10:40:43;;;;;;;3.05;2.10;;;;;26.60;100887.00;;;;5006098;28;20630;-79
2023/07/02 10:43:11;;;;;;;3.47;1.83;;;;;26.60;100888.00;;;;5005580;28;20587;-79
2023/07/02 10:45:38;;;;;;;3.50;1.85;;;;;26.60;100890.00;;;;5006155;28;20204;-80
2023/07/02 10:48:09;;;;;;;5.32;1.92;;;;;26.70;100898.00;;;;5006667;28;20201;-80
2023/07/02 10:50:37;;;;;;;3.72;1.75;;;;;26.70;100897.00;;;;5007171;28;20193;-79
2023/07/02 10:53:04;;;;;;;2.75;1.48;;;;;26.70;100908.00;;;;5007145;28;20216;-80
2023/07/02 10:55:32;;;;;;;2.70;1.55;;;;;26.70;100889.00;;;;5004909;28;20284;-79
2023/07/02 10:58:08;;;;;;;3.67;1.65;;;;;26.70;100901.00;;;;5003445;28;20205;-79
2023/07/02 11:00:45;;;;;;;3.03;1.95;;;;;26.60;100898.00;;;;5003146;28;20373;-80
2023/07/02 11:03:19;;;;;;;5.63;2.05;;;;;26.70;100912.00;;;;4999509;28;20223;-81
2023/07/02 11:05:47;;;;;;;3.45;1.52;;;;;26.70;100914.00;;;;4996528;28;20205;-83
2023/07/02 11:08:15;;;;;;;5.35;1.88;;;;;26.70;100909.00;;;;4993002;28;20272;-82
2023/07/02 11:10:42;;;;;;;3.80;1.83;;;;;26.60;100907.00;;;;5002091;28;20229;-83
2023/07/02 11:13:16;;;;;;;3.00;1.98;;;;;26.50;100920.00;;;;5004529;28;20205;-79
2023/07/02 11:15:45;;;;;;;3.88;2.13;;;;;26.40;100925.00;;;;4986549;28;20212;-81
2023/07/02 11:18:13;;;;;;;3.50;1.92;;;;;26.40;100925.00;;;;5001992;28;20201;-82
2023/07/02 11:20:41;;;;;;;3.67;2.03;;;;;26.40;100919.00;;;;4989258;28;20224;-80
2023/07/02 11:23:19;;;;;;;2.90;1.98;;;;;26.30;100919.00;;;;4986685;28;20209;-80
2023/07/02 11:25:57;;;;;;;5.47;2.10;;;;;26.30;100921.00;;;;5005537;28;20209;-81
2023/07/02 11:28:27;;;;;;;3.70;1.95;;;;;26.30;100916.00;;;;5007438;28;20192;-81
2023/07/02 11:30:54;;;;;;;3.30;1.75;;;;;26.20;100921.00;;;;5005501;28;20300;-85
2023/07/02 11:33:32;;;;;;;3.08;1.52;;;;;26.20;100914.00;;;;5001338;28;20208;-81
2023/07/02 11:36:00;;;;;;;3.92;2.13;;;;;26.20;100916.00;;;;5005235;28;20208;-82
2023/07/02 11:38:27;;;;;;;4.32;2.22;;;;;26.30;100916.00;;;;5006276;28;20212;-80
2023/07/02 11:40:54;;;;;;;4.25;2.13;;;;;26.30;100923.00;;;;5001910;28;20683;-80
2023/07/02 11:43:22;;;;;;;4.40;2.05;;;;;26.30;100923.00;;;;4999375;28;20197;-80
2023/07/02 11:45:50;;;;;;;3.63;1.80;;;;;26.30;100917.00;;;;5001506;28;20568;-80
2023/07/02 11:48:17;;;;;;;4.20;2.45;;;;;26.30;100929.00;;;;4994205;28;20561;-81
2023/07/02 11:50:45;;;;;;;6.43;1.90;;;;;26.30;100927.00;;;;5006876;28;20205;-78
2023/07/02 11:53:12;;;;;;;2.90;1.98;;;;;26.30;100932.00;;;;5005117;28;20197;-78
2023/07/02 11:55:40;;;;;;;3.78;1.98;;;;;26.30;100925.00;;;;5003307;28;20201;-78
2023/07/02 11:58:08;;;;;;;6.82;2.33;;;;;26.40;100924.00;;;;5001876;28;20202;-77
2023/07/02 12:00:35;;;;;;;4.18;2.17;;;;;26.40;100932.00;;;;5004883;28;20232;-78
2023/07/02 12:03:04;;;;;;;3.72;1.77;;;;;26.50;100935.00;;;;5000772;28;20208;-78
2023/07/02 12:05:31;;;;;;;3.45;1.80;;;;;26.60;100936.00;;;;5007117;28;20231;-79
2023/07/02 12:07:58;;;;;;;4.22;2.15;;;;;26.70;100935.00;;;;5002176;28;20221;-79
2023/07/02 12:10:26;;;;;;;3.53;1.92;;;;;26.80;100934.00;;;;5002286;28;20228;-78